Itupeva, Brazil
Current Conditions -  °F | °C
As of 3:00 AM on Wednesday 22 Oct 2014 (Local Time) from SBPS Reporting Station
Overcast Overcast  
Wind Chill: 72°   Ceiling: 6000
Heat Index: 72°   Visibility: 6mi
Dew Point: 70°   Wind: 2mph
Humidity: 94%   Direction: 270°W
Pressure: 29.97"   Gusts: NA
Location:  17.48°S, 40.48°W
Report Text: SBPS 220500Z 27002KT 9999 FEW017 OVC060 22/21 Q1015
Loading
Personal Weather Stations






























Interactive Weather Map
Tropical Storm Tracking
New forecast layout! Learn more

10-Day Weather Forecast

Advertisements
Track Severe Weather on mobile